Terminal Aerodrome Forecast
Issued by NWS Lake Charles, LA

Home | Current Version | Previous Version | Text Only | Print | Product List | Glossary On
Versions: 1 2 3 4 5 6 7 8 9 10 11 12 13 14 15 16 17 18 19
705
FTUS44 KLCH 201744
TAFAEX
TAF
KAEX 201744Z 2018/2118 21008KT P6SM FEW015
     FM210200 VRB05KT 4SM BR SCT007
      TEMPO 2103/2106 1SM -TSRA OVC007CB
     FM210600 VRB04KT 2SM BR VCTS OVC004CB PROB30 2106/2112 1SM
      -TSRA OVC004CB
     FM211500 22007KT P6SM SCT007=

USA.gov is the U.S. government's official web portal to all federal, state and local government web resources and services.